Time;durP1;ratioP1;P1;durP2;ratioP2;P2;SDS_P1;SDS_P2;PMS_P1;PMS_P2;Temp;Humidity;BMP_temperature;BMP_pressure;BME280_temperature;BME280_humidity;BME280_pressure;Samples;Min_cycle;Max_cycle;Signal;HPM_P1;HPM_P2
2023/03/30 00:04:25;;;;;;;3.50;3.33;;;;;;;;;;10274484;28;21010;-82
2023/03/30 00:21:52;;;;;;;;;;;;;;;;;;;;;
2023/03/30 00:27:07;;;;;;;;;;;;;;;;;;;;;
2023/03/30 00:32:22;;;;;;;3.33;3.13;;;;;;;;;;10323151;28;20676;-81
2023/03/30 00:37:44;;;;;;;2.85;2.65;;;;;;;;;;10312263;28;20224;-81
2023/03/30 00:43:07;;;;;;;3.22;3.03;;;;;;;;;;10329173;28;20231;-81
2023/03/30 00:48:16;;;;;;;3.38;3.08;;;;;;;;;;10330888;28;20219;-82
2023/03/30 00:53:29;;;;;;;3.40;3.10;;;;;;;;;;10315212;28;20224;-81
2023/03/30 00:58:38;;;;;;;3.05;2.72;;;;;;;;;;10313080;28;20754;-82
2023/03/30 01:03:46;;;;;;;4.78;3.55;;;;;;;;;;10296667;28;20228;-82
2023/03/30 01:08:51;;;;;;;3.55;2.88;;;;;;;;;;10307216;28;20679;-79
2023/03/30 01:14:08;;;;;;;3.83;3.55;;;;;;;;;;10346276;28;20294;-81
2023/03/30 01:19:32;;;;;;;3.83;3.47;;;;;;;;;;10310482;28;20620;-81
2023/03/30 01:24:48;;;;;;;3.78;3.00;;;;;;;;;;10305624;28;20306;-81
2023/03/30 01:29:59;;;;;;;3.17;3.08;;;;;;;;;;10318105;28;20250;-81
2023/03/30 01:35:12;;;;;;;3.47;2.72;;;;;;;;;;10322286;28;20274;-82
2023/03/30 01:40:13;;;;;;;3.22;2.95;;;;;;;;;;10314512;28;20231;-80
2023/03/30 01:45:22;;;;;;;3.00;2.80;;;;;;;;;;10320783;28;20473;-81
2023/03/30 01:50:32;;;;;;;3.30;3.10;;;;;;;;;;10326870;28;20247;-81
2023/03/30 01:55:38;;;;;;;3.42;3.13;;;;;;;;;;10312818;28;20216;-81
2023/03/30 02:00:42;;;;;;;3.30;3.00;;;;;;;;;;10312812;28;20343;-83
2023/03/30 02:05:44;;;;;;;3.42;2.72;;;;;;;;;;10330510;28;20331;-81
2023/03/30 02:10:46;;;;;;;4.20;3.85;;;;;;;;;;10317923;28;20315;-81
2023/03/30 02:15:49;;;;;;;4.18;3.20;;;;;;;;;;10329062;28;20219;-80
2023/03/30 02:20:51;;;;;;;2.90;2.70;;;;;;;;;;10315005;28;20590;-80
2023/03/30 02:25:52;;;;;;;3.25;3.10;;;;;;;;;;10313234;28;20315;-81
2023/03/30 02:30:53;;;;;;;2.95;2.75;;;;;;;;;;10300528;28;20231;-81
2023/03/30 02:36:11;;;;;;;3.30;3.17;;;;;;;;;;10294058;28;20234;-82
2023/03/30 02:41:18;;;;;;;5.18;3.08;;;;;;;;;;10313826;28;20255;-81
2023/03/30 02:46:28;;;;;;;3.58;3.38;;;;;;;;;;10302717;28;20235;-82
2023/03/30 02:51:40;;;;;;;3.47;3.28;;;;;;;;;;10299988;28;20274;-83
2023/03/30 02:57:02;;;;;;;3.65;3.25;;;;;;;;;;10318645;28;21060;-83
2023/03/30 03:02:11;;;;;;;3.13;3.03;;;;;;;;;;10315713;28;20784;-79
2023/03/30 03:07:13;;;;;;;3.10;2.97;;;;;;;;;;10330098;28;20589;-80
2023/03/30 03:12:15;;;;;;;3.33;3.13;;;;;;;;;;10319957;28;20224;-80
2023/03/30 03:17:21;;;;;;;3.35;3.10;;;;;;;;;;10317156;28;20229;-82
2023/03/30 03:22:22;;;;;;;2.75;2.58;;;;;;;;;;10339396;28;20216;-82
2023/03/30 03:27:23;;;;;;;5.45;3.55;;;;;;;;;;10325027;28;20231;-79
2023/03/30 03:32:37;;;;;;;3.33;3.03;;;;;;;;;;10333445;28;20438;-82
2023/03/30 03:37:39;;;;;;;3.70;3.42;;;;;;;;;;10321087;28;20264;-82
2023/03/30 03:42:40;;;;;;;3.50;3.00;;;;;;;;;;10317843;28;20228;-81
2023/03/30 03:47:49;;;;;;;3.17;3.03;;;;;;;;;;10304908;28;20251;-82
2023/03/30 03:52:50;;;;;;;3.10;2.90;;;;;;;;;;10324927;28;20728;-79
2023/03/30 03:57:52;;;;;;;3.42;3.22;;;;;;;;;;10325155;28;20250;-83
2023/03/30 04:02:53;;;;;;;3.45;3.25;;;;;;;;;;10288742;28;20247;-80
2023/03/30 04:07:55;;;;;;;4.93;3.40;;;;;;;;;;10314858;28;20290;-82
2023/03/30 04:12:57;;;;;;;3.55;2.58;;;;;;;;;;10331685;28;20239;-83
2023/03/30 04:18:14;;;;;;;4.10;2.78;;;;;;;;;;10330010;28;20231;-82
2023/03/30 04:23:44;;;;;;;2.90;2.70;;;;;;;;;;10301974;28;20251;-80
2023/03/30 04:29:05;;;;;;;3.78;2.53;;;;;;;;;;10332723;28;20736;-79
2023/03/30 04:34:25;;;;;;;2.95;2.85;;;;;;;;;;10310368;28;20247;-79
2023/03/30 04:39:49;;;;;;;2.95;2.80;;;;;;;;;;10296444;28;20255;-80
2023/03/30 04:45:08;;;;;;;2.80;2.70;;;;;;;;;;10308477;28;20303;-78
2023/03/30 04:50:13;;;;;;;3.20;3.00;;;;;;;;;;10307387;28;20220;-80
2023/03/30 04:55:32;;;;;;;2.35;2.25;;;;;;;;;;10314038;28;20224;-82
2023/03/30 05:00:54;;;;;;;6.88;2.60;;;;;;;;;;10319241;28;20573;-80
2023/03/30 05:06:22;;;;;;;2.25;2.13;;;;;;;;;;10298486;28;20229;-80
2023/03/30 05:11:38;;;;;;;2.30;2.20;;;;;;;;;;10301985;28;20861;-80
2023/03/30 05:17:00;;;;;;;2.75;2.55;;;;;;;;;;10301727;28;22139;-80
2023/03/30 05:22:25;;;;;;;3.40;2.20;;;;;;;;;;10311737;28;20235;-81
2023/03/30 05:27:49;;;;;;;1.83;1.83;;;;;;;;;;10308085;28;20817;-80
2023/03/30 05:32:58;;;;;;;1.92;1.83;;;;;;;;;;10284161;28;20220;-81
2023/03/30 05:38:19;;;;;;;1.98;1.88;;;;;;;;;;10296294;28;20231;-80
2023/03/30 05:43:39;;;;;;;1.60;1.50;;;;;;;;;;10293478;28;20729;-78
2023/03/30 05:48:57;;;;;;;3.35;1.35;;;;;;;;;;10297579;28;20253;-78
2023/03/30 05:54:25;;;;;;;3.63;1.63;;;;;;;;;;10296592;28;20258;-80
2023/03/30 05:59:41;;;;;;;1.55;1.50;;;;;;;;;;10316910;28;20803;-82
2023/03/30 06:05:00;;;;;;;1.77;1.67;;;;;;;;;;10310124;28;20248;-80
2023/03/30 06:10:02;;;;;;;1.40;1.40;;;;;;;;;;10314366;28;20223;-82
2023/03/30 06:15:03;;;;;;;1.20;1.20;;;;;;;;;;10314402;28;20228;-81
2023/03/30 06:20:14;;;;;;;1.60;1.50;;;;;;;;;;10298492;28;20272;-81
2023/03/30 06:25:20;;;;;;;2.28;1.00;;;;;;;;;;10294651;28;20258;-81
2023/03/30 06:30:22;;;;;;;2.72;1.35;;;;;;;;;;10313275;28;20284;-80
2023/03/30 06:35:28;;;;;;;1.20;1.02;;;;;;;;;;10329956;28;20227;-81
2023/03/30 06:40:29;;;;;;;1.25;1.25;;;;;;;;;;10305207;28;20239;-81
2023/03/30 07:03:05;;;;;;;1.10;1.10;;;;;;;;;;10402116;28;20711;-81
2023/03/30 07:08:11;;;;;;;4.70;1.10;;;;;;;;;;10383841;28;20570;-79
2023/03/30 07:13:18;;;;;;;2.47;0.90;;;;;;;;;;10372849;28;20765;-79
2023/03/30 07:18:21;;;;;;;1.63;1.00;;;;;;;;;;10373574;28;20247;-80
2023/03/30 07:23:23;;;;;;;2.40;0.90;;;;;;;;;;10368191;28;20727;-79
2023/03/30 07:28:26;;;;;;;1.75;0.90;;;;;;;;;;10373318;28;20815;-78
2023/03/30 07:33:28;;;;;;;1.08;1.05;;;;;;;;;;10363987;28;20720;-79
2023/03/30 07:43:57;;;;;;;5.10;1.10;;;;;;;;;;7540596;26;20709;-80
2023/03/30 08:02:22;;;;;;;2.88;0.95;;;;;;;;;;10061004;29;20956;-80
2023/03/30 08:21:09;;;;;;;2.17;1.25;;;;;;;;;;10035840;29;20241;-79
2023/03/30 08:26:41;;;;;;;4.38;1.08;;;;;;;;;;10049619;29;20235;-80
2023/03/30 08:32:05;;;;;;;1.00;0.93;;;;;;;;;;10301412;28;20231;-79
2023/03/30 08:37:11;;;;;;;1.92;1.00;;;;;;;;;;10316452;28;20220;-80
2023/03/30 08:42:29;;;;;;;6.97;1.20;;;;;;;;;;10359780;28;21703;-80
2023/03/30 08:47:34;;;;;;;3.50;1.25;;;;;;;;;;10324645;28;20766;-80
2023/03/30 08:52:36;;;;;;;3.15;0.90;;;;;;;;;;10342765;28;20224;-81
2023/03/30 08:57:54;;;;;;;3.42;0.90;;;;;;;;;;10359992;28;20242;-82
2023/03/30 09:03:06;;;;;;;2.15;1.05;;;;;;;;;;10357843;28;20216;-83
2023/03/30 09:08:14;;;;;;;2.38;1.00;;;;;;;;;;10368905;28;20804;-81
2023/03/30 09:13:17;;;;;;;1.67;1.10;;;;;;;;;;10350216;28;20730;-83
2023/03/30 09:18:25;;;;;;;3.45;0.90;;;;;;;;;;10356107;28;20223;-82
2023/03/30 09:23:30;;;;;;;3.00;1.08;;;;;;;;;;10331880;28;20289;-82
2023/03/30 09:28:43;;;;;;;1.23;1.00;;;;;;;;;;10365978;28;20254;-82
2023/03/30 09:33:47;;;;;;;7.30;1.20;;;;;;;;;;10335688;28;20735;-82
2023/03/30 09:38:49;;;;;;;5.45;1.35;;;;;;;;;;10335798;28;20229;-81
2023/03/30 09:43:51;;;;;;;2.03;1.33;;;;;;;;;;10359307;28;20456;-82
2023/03/30 09:48:52;;;;;;;5.07;1.25;;;;;;;;;;10351856;28;20620;-81
2023/03/30 09:53:58;;;;;;;3.42;1.45;;;;;;;;;;10345892;28;20245;-80
2023/03/30 09:59:18;;;;;;;3.97;1.30;;;;;;;;;;10347449;28;20554;-81
2023/03/30 10:04:20;;;;;;;1.52;1.23;;;;;;;;;;10344140;28;20219;-81
2023/03/30 10:09:23;;;;;;;1.77;1.67;;;;;;;;;;10334703;28;20570;-82
2023/03/30 10:14:31;;;;;;;1.73;1.63;;;;;;;;;;10344424;28;20228;-77
2023/03/30 10:19:34;;;;;;;1.30;1.30;;;;;;;;;;10334239;28;20414;-79
2023/03/30 10:24:35;;;;;;;2.17;1.20;;;;;;;;;;10297503;28;20219;-82
2023/03/30 10:29:36;;;;;;;1.80;0.90;;;;;;;;;;10331971;28;20433;-81
2023/03/30 10:34:40;;;;;;;2.70;1.30;;;;;;;;;;10320650;28;20322;-81
2023/03/30 10:39:43;;;;;;;3.13;1.17;;;;;;;;;;10335886;28;20311;-79
2023/03/30 10:44:48;;;;;;;2.97;1.45;;;;;;;;;;10309214;28;20228;-79
2023/03/30 10:49:55;;;;;;;5.65;1.20;;;;;;;;;;10352966;28;20785;-82
2023/03/30 10:54:56;;;;;;;2.67;1.27;;;;;;;;;;10339425;28;20227;-81
2023/03/30 11:00:00;;;;;;;3.85;1.40;;;;;;;;;;10347229;28;20824;-82
2023/03/30 11:05:04;;;;;;;1.35;1.25;;;;;;;;;;10327683;28;20250;-81
2023/03/30 11:10:11;;;;;;;1.75;1.30;;;;;;;;;;10351175;28;20306;-81
2023/03/30 11:15:15;;;;;;;2.58;1.58;;;;;;;;;;10369490;28;20214;-81
2023/03/30 11:20:26;;;;;;;4.45;1.55;;;;;;;;;;10333697;28;20216;-81
2023/03/30 11:25:32;;;;;;;4.70;1.05;;;;;;;;;;10347658;28;20292;-80
2023/03/30 11:30:35;;;;;;;1.27;0.82;;;;;;;;;;10344932;28;20231;-81
2023/03/30 11:35:41;;;;;;;5.13;1.40;;;;;;;;;;10344113;28;20930;-81
2023/03/30 11:40:46;;;;;;;3.80;1.25;;;;;;;;;;10345291;28;20203;-79
2023/03/30 11:46:00;;;;;;;1.80;0.95;;;;;;;;;;10349730;28;20350;-77
2023/03/30 11:51:13;;;;;;;2.85;0.90;;;;;;;;;;10338298;28;20249;-81
2023/03/30 11:56:27;;;;;;;0.95;0.95;;;;;;;;;;10299827;28;20226;-80
2023/03/30 12:01:40;;;;;;;4.53;0.70;;;;;;;;;;10331023;28;20735;-80
2023/03/30 12:06:47;;;;;;;3.47;0.80;;;;;;;;;;10325719;28;20230;-79
2023/03/30 12:12:06;;;;;;;2.20;0.77;;;;;;;;;;10332938;28;20218;-81
2023/03/30 12:17:24;;;;;;;1.70;0.70;;;;;;;;;;10331298;28;20234;-81
2023/03/30 12:22:28;;;;;;;1.70;1.00;;;;;;;;;;10336344;28;20550;-78
2023/03/30 12:27:33;;;;;;;3.50;1.02;;;;;;;;;;10323772;28;20293;-78
2023/03/30 12:32:35;;;;;;;3.90;1.17;;;;;;;;;;10342942;28;20222;-78
2023/03/30 12:37:36;;;;;;;2.15;1.10;;;;;;;;;;10323575;28;20234;-79
2023/03/30 12:42:45;;;;;;;2.20;1.10;;;;;;;;;;10329093;28;20338;-81
2023/03/30 12:48:06;;;;;;;2.97;0.80;;;;;;;;;;10355485;28;20692;-79
2023/03/30 12:53:11;;;;;;;2.33;0.98;;;;;;;;;;10342959;28;20277;-78
2023/03/30 12:58:31;;;;;;;0.43;0.43;;;;;;;;;;10324953;28;20239;-79
2023/03/30 13:03:48;;;;;;;2.42;0.50;;;;;;;;;;10356502;28;20243;-77
2023/03/30 13:08:54;;;;;;;1.98;0.60;;;;;;;;;;10350377;28;20235;-78
2023/03/30 13:13:59;;;;;;;1.45;0.68;;;;;;;;;;10364646;28;20227;-80
2023/03/30 13:19:09;;;;;;;1.20;0.65;;;;;;;;;;10333971;28;20223;-79
2023/03/30 13:24:45;;;;;;;2.17;0.80;;;;;;;;;;10335679;28;20220;-79
2023/03/30 13:29:53;;;;;;;2.42;0.63;;;;;;;;;;10239980;28;20219;-81
2023/03/30 13:35:17;;;;;;;0.70;0.70;;;;;;;;;;10348330;28;20228;-79
2023/03/30 13:40:21;;;;;;;1.50;0.65;;;;;;;;;;10330031;28;20708;-80
2023/03/30 13:45:25;;;;;;;1.95;0.60;;;;;;;;;;10320698;28;20228;-80
2023/03/30 13:50:28;;;;;;;0.52;0.50;;;;;;;;;;10333664;28;20681;-78
2023/03/30 13:55:31;;;;;;;2.58;0.90;;;;;;;;;;10339504;28;20289;-80
2023/03/30 14:00:42;;;;;;;3.40;0.70;;;;;;;;;;10351248;28;20763;-79
2023/03/30 14:05:43;;;;;;;0.60;0.60;;;;;;;;;;10349904;28;20231;-80
2023/03/30 14:10:49;;;;;;;0.70;0.70;;;;;;;;;;10346288;28;20227;-77
2023/03/30 14:15:50;;;;;;;3.17;0.70;;;;;;;;;;10367138;28;20249;-80
2023/03/30 14:20:54;;;;;;;2.75;0.95;;;;;;;;;;10337267;28;20219;-80
2023/03/30 14:25:59;;;;;;;0.70;0.68;;;;;;;;;;10357157;28;20490;-80
2023/03/30 14:31:10;;;;;;;1.20;1.10;;;;;;;;;;10361569;28;20219;-80
2023/03/30 14:36:14;;;;;;;1.20;1.00;;;;;;;;;;10335813;28;20223;-80
2023/03/30 14:41:22;;;;;;;1.80;1.73;;;;;;;;;;10347396;28;20219;-79
2023/03/30 14:46:24;;;;;;;2.05;1.10;;;;;;;;;;10359631;28;20314;-80
2023/03/30 14:51:45;;;;;;;2.78;0.95;;;;;;;;;;10334130;28;20334;-80
2023/03/30 14:57:07;;;;;;;3.88;0.73;;;;;;;;;;10359741;28;20266;-78
2023/03/30 15:02:18;;;;;;;1.27;0.68;;;;;;;;;;10374440;28;20277;-80
2023/03/30 15:07:20;;;;;;;1.80;0.93;;;;;;;;;;10350405;28;20713;-78
2023/03/30 15:12:24;;;;;;;1.23;1.13;;;;;;;;;;10338803;28;20222;-80
2023/03/30 15:17:26;;;;;;;0.80;0.80;;;;;;;;;;10352454;28;20242;-80
2023/03/30 15:22:27;;;;;;;1.40;1.40;;;;;;;;;;10326888;28;20313;-79
2023/03/30 15:27:29;;;;;;;2.85;1.45;;;;;;;;;;10346100;28;20234;-79
2023/03/30 15:32:35;;;;;;;3.00;0.60;;;;;;;;;;10331680;28;20237;-79
2023/03/30 15:37:36;;;;;;;4.50;1.05;;;;;;;;;;10326160;28;20707;-80
2023/03/30 15:42:37;;;;;;;2.97;0.60;;;;;;;;;;10327187;28;20223;-80
2023/03/30 15:47:39;;;;;;;1.35;0.70;;;;;;;;;;10305036;28;20662;-79
2023/03/30 15:52:43;;;;;;;2.15;0.70;;;;;;;;;;10342259;28;20254;-83
2023/03/30 15:57:46;;;;;;;3.50;0.80;;;;;;;;;;10335822;28;20219;-82
2023/03/30 16:02:49;;;;;;;2.35;0.57;;;;;;;;;;10323850;28;20224;-84
2023/03/30 16:07:50;;;;;;;1.50;0.50;;;;;;;;;;10315636;28;20223;-82
2023/03/30 16:12:52;;;;;;;2.03;0.90;;;;;;;;;;10332740;28;20518;-83
2023/03/30 16:17:53;;;;;;;1.08;0.43;;;;;;;;;;10353518;28;20219;-82
2023/03/30 16:22:54;;;;;;;0.98;0.50;;;;;;;;;;10372567;28;20216;-83
2023/03/30 16:27:57;;;;;;;4.15;0.40;;;;;;;;;;10341967;28;20236;-82
2023/03/30 16:32:58;;;;;;;0.50;0.50;;;;;;;;;;10329152;28;20653;-83
2023/03/30 16:37:59;;;;;;;2.55;0.60;;;;;;;;;;10366954;28;20224;-82
2023/03/30 16:43:00;;;;;;;0.88;0.63;;;;;;;;;;10358182;28;20554;-81
2023/03/30 16:48:01;;;;;;;1.75;0.63;;;;;;;;;;10324913;28;20266;-81
2023/03/30 16:53:03;;;;;;;1.67;0.57;;;;;;;;;;10342535;28;20721;-81
2023/03/30 16:58:05;;;;;;;1.73;0.57;;;;;;;;;;10336315;28;20223;-79
2023/03/30 17:03:06;;;;;;;0.85;0.80;;;;;;;;;;10326456;28;20254;-81
2023/03/30 17:08:15;;;;;;;1.67;0.80;;;;;;;;;;10322747;28;20222;-79
2023/03/30 17:13:16;;;;;;;3.50;1.13;;;;;;;;;;10338074;28;20231;-81
2023/03/30 17:18:20;;;;;;;0.40;0.40;;;;;;;;;;10363313;28;20317;-82
2023/03/30 17:23:26;;;;;;;1.70;0.77;;;;;;;;;;10351641;28;20312;-82
2023/03/30 17:28:31;;;;;;;2.63;0.90;;;;;;;;;;10355051;28;20224;-81
2023/03/30 17:33:34;;;;;;;0.52;0.40;;;;;;;;;;10351742;28;20561;-82
2023/03/30 17:38:35;;;;;;;1.95;0.30;;;;;;;;;;10328910;28;21583;-82
2023/03/30 17:43:36;;;;;;;0.95;0.65;;;;;;;;;;10335860;28;20220;-82
2023/03/30 17:48:38;;;;;;;0.40;0.40;;;;;;;;;;10354062;28;20219;-81
2023/03/30 17:53:39;;;;;;;0.57;0.40;;;;;;;;;;10345343;28;20241;-82
2023/03/30 17:58:40;;;;;;;0.90;0.50;;;;;;;;;;10346299;28;20227;-80
2023/03/30 18:03:43;;;;;;;0.75;0.40;;;;;;;;;;10330714;28;20852;-80
2023/03/30 18:08:44;;;;;;;2.50;0.65;;;;;;;;;;10335566;28;20227;-78
2023/03/30 18:13:45;;;;;;;1.92;0.80;;;;;;;;;;10356641;28;20710;-77
2023/03/30 18:18:46;;;;;;;1.95;0.65;;;;;;;;;;10337885;28;20226;-81
2023/03/30 18:23:47;;;;;;;2.05;0.70;;;;;;;;;;10344323;28;20562;-81
2023/03/30 18:28:48;;;;;;;1.02;0.80;;;;;;;;;;10359256;28;20627;-80
2023/03/30 18:33:50;;;;;;;4.88;0.90;;;;;;;;;;10349102;28;20223;-82
2023/03/30 18:38:51;;;;;;;2.28;1.30;;;;;;;;;;10327645;28;20223;-82
2023/03/30 18:43:52;;;;;;;3.15;1.30;;;;;;;;;;10318383;28;20277;-82
2023/03/30 18:48:53;;;;;;;3.22;1.33;;;;;;;;;;10304431;28;20223;-81
2023/03/30 18:53:55;;;;;;;1.20;1.20;;;;;;;;;;10322901;28;20717;-81
2023/03/30 18:58:56;;;;;;;3.53;1.98;;;;;;;;;;10330284;28;20231;-80
2023/03/30 19:03:58;;;;;;;5.47;2.88;;;;;;;;;;10342361;28;20286;-82
2023/03/30 19:08:59;;;;;;;4.45;2.42;;;;;;;;;;10328555;28;20297;-81
2023/03/30 19:14:01;;;;;;;1.58;1.40;;;;;;;;;;10334793;28;20243;-84
2023/03/30 19:19:01;;;;;;;1.25;1.25;;;;;;;;;;10342666;28;21425;-82
2023/03/30 19:24:03;;;;;;;2.38;1.20;;;;;;;;;;10346763;28;20719;-82
2023/03/30 19:29:04;;;;;;;1.05;0.93;;;;;;;;;;10332269;28;20211;-81
2023/03/30 19:34:05;;;;;;;0.70;0.70;;;;;;;;;;10330241;28;20230;-82
2023/03/30 19:39:06;;;;;;;3.55;1.52;;;;;;;;;;10340448;28;20281;-82
2023/03/30 19:44:07;;;;;;;3.60;1.30;;;;;;;;;;10327857;28;20757;-81
2023/03/30 19:49:08;;;;;;;0.98;0.98;;;;;;;;;;10341087;28;20423;-82
2023/03/30 19:54:09;;;;;;;4.43;1.08;;;;;;;;;;10353422;28;20595;-80
2023/03/30 19:59:10;;;;;;;1.15;1.05;;;;;;;;;;10340169;28;20223;-81
2023/03/30 20:04:11;;;;;;;2.95;1.20;;;;;;;;;;10342722;28;20223;-82
2023/03/30 20:09:12;;;;;;;2.20;1.17;;;;;;;;;;10357999;28;20236;-81
2023/03/30 20:14:13;;;;;;;1.55;0.60;;;;;;;;;;10381124;28;20219;-80
2023/03/30 20:19:14;;;;;;;1.65;0.85;;;;;;;;;;10352031;28;20215;-81
2023/03/30 20:24:15;;;;;;;0.80;0.80;;;;;;;;;;10359868;28;20219;-81
2023/03/30 20:29:16;;;;;;;1.85;0.75;;;;;;;;;;10330373;28;20223;-77
2023/03/30 20:34:18;;;;;;;2.03;0.70;;;;;;;;;;10337467;28;20311;-80
2023/03/30 20:39:21;;;;;;;2.25;1.13;;;;;;;;;;10336797;28;20224;-81
2023/03/30 20:44:29;;;;;;;0.95;0.88;;;;;;;;;;10361439;28;20299;-80
2023/03/30 20:49:32;;;;;;;1.35;0.60;;;;;;;;;;10357526;28;20231;-80
2023/03/30 20:54:33;;;;;;;0.73;0.70;;;;;;;;;;10367864;28;20236;-77
2023/03/30 20:59:34;;;;;;;4.00;1.52;;;;;;;;;;10339388;28;20223;-80
2023/03/30 21:04:35;;;;;;;1.20;1.20;;;;;;;;;;10353286;28;20322;-82
2023/03/30 21:09:36;;;;;;;1.17;1.00;;;;;;;;;;10363559;28;20224;-80
2023/03/30 21:14:37;;;;;;;1.08;0.70;;;;;;;;;;10366249;28;20231;-75
2023/03/30 21:19:38;;;;;;;0.93;0.88;;;;;;;;;;10357603;28;20216;-78
2023/03/30 21:24:39;;;;;;;2.15;0.73;;;;;;;;;;10349199;28;20226;-78
2023/03/30 21:29:40;;;;;;;3.15;1.30;;;;;;;;;;10360341;28;20208;-78
2023/03/30 21:34:42;;;;;;;1.55;0.60;;;;;;;;;;10373074;28;20231;-78
2023/03/30 21:39:43;;;;;;;2.40;0.77;;;;;;;;;;10373932;28;20220;-78
2023/03/30 21:44:44;;;;;;;2.92;0.70;;;;;;;;;;10372315;28;20227;-78
2023/03/30 21:49:46;;;;;;;3.88;0.93;;;;;;;;;;10348168;28;20232;-77
2023/03/30 21:54:47;;;;;;;2.03;0.45;;;;;;;;;;10332659;28;20215;-78
2023/03/30 21:59:48;;;;;;;0.68;0.63;;;;;;;;;;10342125;28;20220;-78
2023/03/30 22:04:49;;;;;;;5.05;0.90;;;;;;;;;;10349233;28;20311;-79
2023/03/30 22:09:50;;;;;;;1.58;1.15;;;;;;;;;;10356031;28;20349;-76
2023/03/30 22:14:51;;;;;;;2.08;0.80;;;;;;;;;;10356702;28;20229;-78
2023/03/30 22:19:52;;;;;;;1.77;1.58;;;;;;;;;;10338238;28;20325;-78
2023/03/30 22:24:53;;;;;;;3.17;0.50;;;;;;;;;;10329758;28;20271;-79
2023/03/30 22:29:54;;;;;;;0.73;0.43;;;;;;;;;;10348209;28;20219;-79
2023/03/30 22:34:55;;;;;;;4.88;0.75;;;;;;;;;;10328961;28;20221;-80
2023/03/30 22:39:56;;;;;;;2.30;0.80;;;;;;;;;;10331667;28;20235;-77
2023/03/30 22:44:57;;;;;;;3.80;0.57;;;;;;;;;;10342264;28;20297;-78
2023/03/30 22:49:58;;;;;;;2.53;0.70;;;;;;;;;;10368919;28;20219;-78
2023/03/30 22:54:59;;;;;;;1.48;0.50;;;;;;;;;;10330096;28;21200;-74
2023/03/30 23:00:07;;;;;;;0.52;0.52;;;;;;;;;;10340562;28;20250;-77
2023/03/30 23:05:09;;;;;;;1.27;0.57;;;;;;;;;;10328929;28;20759;-78
2023/03/30 23:10:12;;;;;;;2.70;0.50;;;;;;;;;;10341190;28;20215;-76
2023/03/30 23:15:14;;;;;;;1.75;0.75;;;;;;;;;;10345822;28;20217;-77
2023/03/30 23:20:15;;;;;;;3.03;0.77;;;;;;;;;;10348560;28;20298;-80
2023/03/30 23:25:16;;;;;;;1.92;0.52;;;;;;;;;;10358228;28;20298;-78
2023/03/30 23:30:17;;;;;;;2.97;1.00;;;;;;;;;;10347425;28;20218;-78
2023/03/30 23:35:18;;;;;;;3.13;0.70;;;;;;;;;;10345052;28;20216;-78
2023/03/30 23:40:19;;;;;;;4.97;0.63;;;;;;;;;;10351267;28;20569;-78
2023/03/30 23:45:20;;;;;;;0.93;0.90;;;;;;;;;;10367970;28;20293;-78
2023/03/30 23:50:21;;;;;;;0.60;0.60;;;;;;;;;;10337477;28;20239;-78
2023/03/30 23:55:23;;;;;;;0.73;0.60;;;;;;;;;;10351897;28;20239;-77
